#dbistima — V2PX5 — position and weather

sailwx.info

Track history (hours):
 
Tides and Currents Weather Stations Pressure Air Temp Water Temp Dewpoint Dewpoint Depression Visibility Wind Speed Wind Dir Waves Ship Positions

#dbistima

Last reported at 2014-Aug-22 21:29 UTC. Time now 2014-Aug-22 23:40 UTC.
Position N 56°30' E 012°00'.

MMSI: 304010972.

Date/timePositionNaut miles runAvg speedWind from/ knotsBaromVisibWave heightAir tempDewpointWater temp
2014-Aug-22 21:29N 56°30' E 012°00'9 9.9
2014-Aug-22 20:33N 56°22' E 012°07'10 9.9
2014-Aug-22 19:33N 56°13' E 012°17'1110.9
2014-Aug-22 18:33N 56°07' E 012°33'1111.2
2014-Aug-22 17:33N 55°57' E 012°43'1110.8
2014-Aug-22 16:33N 55°46' E 012°42'1110.9
2014-Aug-22 15:33N 55°35' E 012°42'1010.5
2014-Aug-22 14:33N 55°25' E 012°42'9 8.6
2014-Aug-22 13:33N 55°17' E 012°48'9 9.2
2014-Aug-22 12:33N 55°11' E 013°00'60 9.9
2014-Aug-22 06:33N 54°18' E 013°47'9 9.2
2014-Aug-22 05:33N 54°11' E 013°36'3 3.4
2014-Aug-22 04:33N 54°08' E 013°34'0 0.0
2014-Aug-22 03:31N 54°08' E 013°34'0 0.0
2014-Aug-22 02:31N 54°08' E 013°34'0 0.0
2014-Aug-22 01:31N 54°08' E 013°34'0 0.0
2014-Aug-22 00:31N 54°08' E 013°34'0 0.0
2014-Aug-21 23:31N 54°08' E 013°34'0 0.0
2014-Aug-21 22:31N 54°08' E 013°34'0 0.0
2014-Aug-21 21:31N 54°08' E 013°34'0 0.0
2014-Aug-21 20:28N 54°08' E 013°34'0 0.0
2014-Aug-21 19:31N 54°08' E 013°34'0 0.0
2014-Aug-21 18:31N 54°08' E 013°34'0 0.0
2014-Aug-21 17:31N 54°08' E 013°34'0 0.0
2014-Aug-21 16:31N 54°08' E 013°34'0 0.0
2014-Aug-21 15:31N 54°08' E 013°34'0 0.0
2014-Aug-21 14:31N 54°08' E 013°34'0 0.0
2014-Aug-21 13:31N 54°08' E 013°34'0 0.0
2014-Aug-21 12:31N 54°08' E 013°34'0 0.0
2014-Aug-21 11:28N 54°08' E 013°34'0 0.0
2014-Aug-21 10:31N 54°08' E 013°34'0 0.0
2014-Aug-21 09:31N 54°08' E 013°34'0 0.0
2014-Aug-21 08:31N 54°08' E 013°34'0 0.0
2014-Aug-21 07:31N 54°08' E 013°34'0 0.0
2014-Aug-21 06:31N 54°08' E 013°34'0 0.0
2014-Aug-21 05:33N 54°08' E 013°34'5 4.6
2014-Aug-21 04:33N 54°12' E 013°38'9 9.0
2014-Aug-21 03:33N 54°19' E 013°48'8 8.2
2014-Aug-21 02:34N 54°26' E 013°41'0 0.1
2014-Aug-21 01:33N 54°26' E 013°41'0 0.0
2014-Aug-21 00:33N 54°26' E 013°41'0 0.0
2014-Aug-20 23:33N 54°26' E 013°41'0 0.0
2014-Aug-20 22:33N 54°26' E 013°41'0 0.0
2014-Aug-20 21:34N 54°26' E 013°41'0 0.0
2014-Aug-20 20:34N 54°26' E 013°41'0 0.0
2014-Aug-20 19:33N 54°26' E 013°41'0 0.0
2014-Aug-20 18:34N 54°26' E 013°41'0 0.0
2014-Aug-20 17:31N 54°26' E 013°41'0 0.0
2014-Aug-20 16:33N 54°26' E 013°41'0 0.0
2014-Aug-20 15:34N 54°26' E 013°41'0 0.0
2014-Aug-20 14:33N 54°26' E 013°41'0 0.0
2014-Aug-20 13:33N 54°26' E 013°41'0 0.0
2014-Aug-20 12:33N 54°26' E 013°41'0 0.0
2014-Aug-20 11:33N 54°26' E 013°41'0 0.0
2014-Aug-20 10:34N 54°26' E 013°41'0 0.0
2014-Aug-20 09:33N 54°26' E 013°41'0 0.0
2014-Aug-20 08:33N 54°26' E 013°41'0 0.0
2014-Aug-20 07:33N 54°26' E 013°41'0 0.0
2014-Aug-20 06:33N 54°26' E 013°41'0 0.0
2014-Aug-20 05:33N 54°26' E 013°41'0 0.0
2014-Aug-20 04:33N 54°26' E 013°41'0 0.0
2014-Aug-20 03:33N 54°26' E 013°41'0 0.0
2014-Aug-20 02:33N 54°26' E 013°41'0 0.0
2014-Aug-20 01:31N 54°26' E 013°41'0 0.0
2014-Aug-20 00:33N 54°26' E 013°41'0 0.0
2014-Aug-19 23:33N 54°26' E 013°41'0 0.0
2014-Aug-19 22:33N 54°26' E 013°41'0 0.0
2014-Aug-19 21:33N 54°26' E 013°41'0 0.0
2014-Aug-19 20:34N 54°26' E 013°41'0 0.0
2014-Aug-19 19:33N 54°26' E 013°41'0 0.0
2014-Aug-19 18:33N 54°26' E 013°41'0 0.0
2014-Aug-19 17:33N 54°26' E 013°41'0 0.0
2014-Aug-19 16:34N 54°26' E 013°41'0 0.0
2014-Aug-19 15:33N 54°26' E 013°41'0 0.0
2014-Aug-19 14:28N 54°26' E 013°41'0 0.0
2014-Aug-19 13:34N 54°26' E 013°41'0 0.0
2014-Aug-19 12:31N 54°26' E 013°41'0 0.0
2014-Aug-19 11:33N 54°26' E 013°41'0 0.0
2014-Aug-19 10:33N 54°26' E 013°41'0 0.0
2014-Aug-19 09:33N 54°26' E 013°41'0 0.0
2014-Aug-19 08:34N 54°26' E 013°41'0 0.1
2014-Aug-19 07:33N 54°26' E 013°41'0 0.0
2014-Aug-19 06:33N 54°26' E 013°41'0 0.0
2014-Aug-19 05:31N 54°26' E 013°41'0 0.0
2014-Aug-19 04:33N 54°26' E 013°41'0 0.0
2014-Aug-19 03:34N 54°26' E 013°41'0 0.0
2014-Aug-19 02:33N 54°26' E 013°41'0 0.0
2014-Aug-19 01:33N 54°26' E 013°41'0 0.0
2014-Aug-19 00:33N 54°26' E 013°41'0 0.0
2014-Aug-18 23:33N 54°26' E 013°41'0 0.0
2014-Aug-18 22:33N 54°26' E 013°41'0 0.0
2014-Aug-18 21:33N 54°26' E 013°41'0 0.0
2014-Aug-18 20:34N 54°26' E 013°41'0 0.0
2014-Aug-18 19:33N 54°26' E 013°41'0 0.0
2014-Aug-18 18:33N 54°26' E 013°41'0 0.0
2014-Aug-18 17:33N 54°26' E 013°41'0 0.1
2014-Aug-18 16:33N 54°26' E 013°41'4 4.2
2014-Aug-18 15:30N 54°29' E 013°35'0 0.0
2014-Aug-18 14:33N 54°29' E 013°35'0 0.0
2014-Aug-18 13:33N 54°29' E 013°35'0 0.0
2014-Aug-18 12:24N 54°29' E 013°35'0 0.0
2014-Aug-18 11:30N 54°29' E 013°35'0 0.0
2014-Aug-18 10:33N 54°29' E 013°35'0 0.0
2014-Aug-18 09:30N 54°29' E 013°35'0 0.0
2014-Aug-18 08:33N 54°29' E 013°35'0 0.0
2014-Aug-18 07:33N 54°29' E 013°35'0 0.0
2014-Aug-18 06:33N 54°29' E 013°35'0 0.0
2014-Aug-18 05:33N 54°29' E 013°35'0 0.0
2014-Aug-18 04:33N 54°29' E 013°35'0 0.0
2014-Aug-18 03:33N 54°29' E 013°35'0 0.0
2014-Aug-18 02:30N 54°29' E 013°35'0 0.0
2014-Aug-18 01:33N 54°29' E 013°35'0 0.0
2014-Aug-18 00:30N 54°29' E 013°35'0 0.0
2014-Aug-17 18:33N 54°29' E 013°35'0 0.0
2014-Aug-17 17:33N 54°29' E 013°35'0 0.0
2014-Aug-17 16:30N 54°29' E 013°35'0 0.0
2014-Aug-17 15:33N 54°29' E 013°35'0 0.0
2014-Aug-17 14:33N 54°29' E 013°35'0 0.0
2014-Aug-17 13:33N 54°29' E 013°35'0 0.0
2014-Aug-17 12:30N 54°29' E 013°35'0 0.0
2014-Aug-17 11:33N 54°29' E 013°35'0 0.0
2014-Aug-17 10:33N 54°29' E 013°35'0 0.0
2014-Aug-17 09:33N 54°29' E 013°35'0 0.0
2014-Aug-17 08:24N 54°29' E 013°35'0 0.0
2014-Aug-17 07:24N 54°29' E 013°35'0 0.0
2014-Aug-17 06:30N 54°29' E 013°35'0 0.0
2014-Aug-17 05:33N 54°29' E 013°35'0 0.0
2014-Aug-17 04:30N 54°29' E 013°35'0 0.0
2014-Aug-17 03:33N 54°29' E 013°35'0 0.0
2014-Aug-17 02:30N 54°29' E 013°35'0 0.0
2014-Aug-17 01:33N 54°29' E 013°35'0 0.0
2014-Aug-17 00:30N 54°29' E 013°35'0 0.0
2014-Aug-16 23:30N 54°29' E 013°35'0 0.0
2014-Aug-16 22:33N 54°29' E 013°35'0 0.0
2014-Aug-16 21:33N 54°29' E 013°35'0 0.0
2014-Aug-16 20:33N 54°29' E 013°35'0 0.0
2014-Aug-16 19:33N 54°29' E 013°35'0 0.0
2014-Aug-16 18:33N 54°29' E 013°35'0 0.0
2014-Aug-16 17:33N 54°29' E 013°35'0 0.0
2014-Aug-16 16:33N 54°29' E 013°35'0 0.0
2014-Aug-16 15:30N 54°29' E 013°35'0 0.0
2014-Aug-16 14:33N 54°29' E 013°35'0 0.0
2014-Aug-16 13:33N 54°29' E 013°35'0 0.1
2014-Aug-16 12:33N 54°29' E 013°35'2 2.3
2014-Aug-16 11:34N 54°28' E 013°39'4 3.8
2014-Aug-16 10:33N 54°27' E 013°45'1 1.5
2014-Aug-16 09:33N 54°29' E 013°44'9 9.0
2014-Aug-16 08:33N 54°37' E 013°51'1010.2
2014-Aug-16 07:33N 54°47' E 013°56'3610.2
2014-Aug-16 04:04N 55°19' E 014°24'510.7
2014-Aug-16 03:33N 55°23' E 014°30'1110.6
2014-Aug-16 02:33N 55°30' E 014°44'1110.8
2014-Aug-16 01:31N 55°35' E 015°01'1111.1
2014-Aug-16 00:30N 55°41' E 015°19'1311.0
2014-Aug-15 23:21N 55°48' E 015°38'911.0
2014-Aug-15 22:33N 55°52' E 015°52'1010.5
2014-Aug-15 21:33N 55°57' E 016°08'1010.3
2014-Aug-15 20:33N 56°02' E 016°24'67 9.6
2014-Aug-15 13:33N 57°01' E 017°21'10 9.6
2014-Aug-15 12:33N 57°10' E 017°27'10 9.9
2014-Aug-15 11:33N 57°19' E 017°34'1010.1
2014-Aug-15 10:33N 57°29' E 017°41'1210.4
2014-Aug-15 09:27N 57°40' E 017°42'  
Track history (hours):
 
Tides and Currents Weather Stations Pressure Air Temp Water Temp Dewpoint Dewpoint Depression Visibility Wind Speed Wind Dir Waves Ship Positions

#dbistima

Last reported at 2014-Aug-22 21:29 UTC. Time now 2014-Aug-22 23:40 UTC.
Position N 56°30' E 012°00'.

MMSI: 304010972.

Date/timePositionNaut miles runAvg speedWind from/ knotsBaromVisibWave heightAir tempDewpointWater temp
2014-Aug-22 21:29N 56°30' E 012°00'9 9.9
2014-Aug-22 20:33N 56°22' E 012°07'10 9.9
2014-Aug-22 19:33N 56°13' E 012°17'1110.9
2014-Aug-22 18:33N 56°07' E 012°33'1111.2
2014-Aug-22 17:33N 55°57' E 012°43'1110.8
2014-Aug-22 16:33N 55°46' E 012°42'1110.9
2014-Aug-22 15:33N 55°35' E 012°42'1010.5
2014-Aug-22 14:33N 55°25' E 012°42'9 8.6
2014-Aug-22 13:33N 55°17' E 012°48'9 9.2
2014-Aug-22 12:33N 55°11' E 013°00'60 9.9
2014-Aug-22 06:33N 54°18' E 013°47'9 9.2
2014-Aug-22 05:33N 54°11' E 013°36'3 3.4
2014-Aug-22 04:33N 54°08' E 013°34'0 0.0
2014-Aug-22 03:31N 54°08' E 013°34'0 0.0
2014-Aug-22 02:31N 54°08' E 013°34'0 0.0
2014-Aug-22 01:31N 54°08' E 013°34'0 0.0
2014-Aug-22 00:31N 54°08' E 013°34'0 0.0
2014-Aug-21 23:31N 54°08' E 013°34'0 0.0
2014-Aug-21 22:31N 54°08' E 013°34'0 0.0
2014-Aug-21 21:31N 54°08' E 013°34'0 0.0
2014-Aug-21 20:28N 54°08' E 013°34'0 0.0
2014-Aug-21 19:31N 54°08' E 013°34'0 0.0
2014-Aug-21 18:31N 54°08' E 013°34'0 0.0
2014-Aug-21 17:31N 54°08' E 013°34'0 0.0
2014-Aug-21 16:31N 54°08' E 013°34'0 0.0
2014-Aug-21 15:31N 54°08' E 013°34'0 0.0
2014-Aug-21 14:31N 54°08' E 013°34'0 0.0
2014-Aug-21 13:31N 54°08' E 013°34'0 0.0
2014-Aug-21 12:31N 54°08' E 013°34'0 0.0
2014-Aug-21 11:28N 54°08' E 013°34'0 0.0
2014-Aug-21 10:31N 54°08' E 013°34'0 0.0
2014-Aug-21 09:31N 54°08' E 013°34'0 0.0
2014-Aug-21 08:31N 54°08' E 013°34'0 0.0
2014-Aug-21 07:31N 54°08' E 013°34'0 0.0
2014-Aug-21 06:31N 54°08' E 013°34'0 0.0
2014-Aug-21 05:33N 54°08' E 013°34'5 4.6
2014-Aug-21 04:33N 54°12' E 013°38'9 9.0
2014-Aug-21 03:33N 54°19' E 013°48'8 8.2
2014-Aug-21 02:34N 54°26' E 013°41'0 0.1
2014-Aug-21 01:33N 54°26' E 013°41'0 0.0
2014-Aug-21 00:33N 54°26' E 013°41'0 0.0
2014-Aug-20 23:33N 54°26' E 013°41'0 0.0
2014-Aug-20 22:33N 54°26' E 013°41'0 0.0
2014-Aug-20 21:34N 54°26' E 013°41'0 0.0
2014-Aug-20 20:34N 54°26' E 013°41'0 0.0
2014-Aug-20 19:33N 54°26' E 013°41'0 0.0
2014-Aug-20 18:34N 54°26' E 013°41'0 0.0
2014-Aug-20 17:31N 54°26' E 013°41'0 0.0
2014-Aug-20 16:33N 54°26' E 013°41'0 0.0
2014-Aug-20 15:34N 54°26' E 013°41'0 0.0
2014-Aug-20 14:33N 54°26' E 013°41'0 0.0
2014-Aug-20 13:33N 54°26' E 013°41'0 0.0
2014-Aug-20 12:33N 54°26' E 013°41'0 0.0
2014-Aug-20 11:33N 54°26' E 013°41'0 0.0
2014-Aug-20 10:34N 54°26' E 013°41'0 0.0
2014-Aug-20 09:33N 54°26' E 013°41'0 0.0
2014-Aug-20 08:33N 54°26' E 013°41'0 0.0
2014-Aug-20 07:33N 54°26' E 013°41'0 0.0
2014-Aug-20 06:33N 54°26' E 013°41'0 0.0
2014-Aug-20 05:33N 54°26' E 013°41'0 0.0
2014-Aug-20 04:33N 54°26' E 013°41'0 0.0
2014-Aug-20 03:33N 54°26' E 013°41'0 0.0
2014-Aug-20 02:33N 54°26' E 013°41'0 0.0
2014-Aug-20 01:31N 54°26' E 013°41'0 0.0
2014-Aug-20 00:33N 54°26' E 013°41'0 0.0
2014-Aug-19 23:33N 54°26' E 013°41'0 0.0
2014-Aug-19 22:33N 54°26' E 013°41'0 0.0
2014-Aug-19 21:33N 54°26' E 013°41'0 0.0
2014-Aug-19 20:34N 54°26' E 013°41'0 0.0
2014-Aug-19 19:33N 54°26' E 013°41'0 0.0
2014-Aug-19 18:33N 54°26' E 013°41'0 0.0
2014-Aug-19 17:33N 54°26' E 013°41'0 0.0
2014-Aug-19 16:34N 54°26' E 013°41'0 0.0
2014-Aug-19 15:33N 54°26' E 013°41'0 0.0
2014-Aug-19 14:28N 54°26' E 013°41'0 0.0
2014-Aug-19 13:34N 54°26' E 013°41'0 0.0
2014-Aug-19 12:31N 54°26' E 013°41'0 0.0
2014-Aug-19 11:33N 54°26' E 013°41'0 0.0
2014-Aug-19 10:33N 54°26' E 013°41'0 0.0
2014-Aug-19 09:33N 54°26' E 013°41'0 0.0
2014-Aug-19 08:34N 54°26' E 013°41'0 0.1
2014-Aug-19 07:33N 54°26' E 013°41'0 0.0
2014-Aug-19 06:33N 54°26' E 013°41'0 0.0
2014-Aug-19 05:31N 54°26' E 013°41'0 0.0
2014-Aug-19 04:33N 54°26' E 013°41'0 0.0
2014-Aug-19 03:34N 54°26' E 013°41'0 0.0
2014-Aug-19 02:33N 54°26' E 013°41'0 0.0
2014-Aug-19 01:33N 54°26' E 013°41'0 0.0
2014-Aug-19 00:33N 54°26' E 013°41'0 0.0
2014-Aug-18 23:33N 54°26' E 013°41'0 0.0
2014-Aug-18 22:33N 54°26' E 013°41'0 0.0
2014-Aug-18 21:33N 54°26' E 013°41'0 0.0
2014-Aug-18 20:34N 54°26' E 013°41'0 0.0
2014-Aug-18 19:33N 54°26' E 013°41'0 0.0
2014-Aug-18 18:33N 54°26' E 013°41'0 0.0
2014-Aug-18 17:33N 54°26' E 013°41'0 0.1
2014-Aug-18 16:33N 54°26' E 013°41'4 4.2
2014-Aug-18 15:30N 54°29' E 013°35'0 0.0
2014-Aug-18 14:33N 54°29' E 013°35'0 0.0
2014-Aug-18 13:33N 54°29' E 013°35'0 0.0
2014-Aug-18 12:24N 54°29' E 013°35'0 0.0
2014-Aug-18 11:30N 54°29' E 013°35'0 0.0
2014-Aug-18 10:33N 54°29' E 013°35'0 0.0
2014-Aug-18 09:30N 54°29' E 013°35'0 0.0
2014-Aug-18 08:33N 54°29' E 013°35'0 0.0
2014-Aug-18 07:33N 54°29' E 013°35'0 0.0
2014-Aug-18 06:33N 54°29' E 013°35'0 0.0
2014-Aug-18 05:33N 54°29' E 013°35'0 0.0
2014-Aug-18 04:33N 54°29' E 013°35'0 0.0
2014-Aug-18 03:33N 54°29' E 013°35'0 0.0
2014-Aug-18 02:30N 54°29' E 013°35'0 0.0
2014-Aug-18 01:33N 54°29' E 013°35'0 0.0
2014-Aug-18 00:30N 54°29' E 013°35'0 0.0
2014-Aug-17 18:33N 54°29' E 013°35'0 0.0
2014-Aug-17 17:33N 54°29' E 013°35'0 0.0
2014-Aug-17 16:30N 54°29' E 013°35'0 0.0
2014-Aug-17 15:33N 54°29' E 013°35'0 0.0
2014-Aug-17 14:33N 54°29' E 013°35'0 0.0
2014-Aug-17 13:33N 54°29' E 013°35'0 0.0
2014-Aug-17 12:30N 54°29' E 013°35'0 0.0
2014-Aug-17 11:33N 54°29' E 013°35'0 0.0
2014-Aug-17 10:33N 54°29' E 013°35'0 0.0
2014-Aug-17 09:33N 54°29' E 013°35'0 0.0
2014-Aug-17 08:24N 54°29' E 013°35'0 0.0
2014-Aug-17 07:24N 54°29' E 013°35'0 0.0
2014-Aug-17 06:30N 54°29' E 013°35'0 0.0
2014-Aug-17 05:33N 54°29' E 013°35'0 0.0
2014-Aug-17 04:30N 54°29' E 013°35'0 0.0
2014-Aug-17 03:33N 54°29' E 013°35'0 0.0
2014-Aug-17 02:30N 54°29' E 013°35'0 0.0
2014-Aug-17 01:33N 54°29' E 013°35'0 0.0
2014-Aug-17 00:30N 54°29' E 013°35'0 0.0
2014-Aug-16 23:30N 54°29' E 013°35'0 0.0
2014-Aug-16 22:33N 54°29' E 013°35'0 0.0
2014-Aug-16 21:33N 54°29' E 013°35'0 0.0
2014-Aug-16 20:33N 54°29' E 013°35'0 0.0
2014-Aug-16 19:33N 54°29' E 013°35'0 0.0
2014-Aug-16 18:33N 54°29' E 013°35'0 0.0
2014-Aug-16 17:33N 54°29' E 013°35'0 0.0
2014-Aug-16 16:33N 54°29' E 013°35'0 0.0
2014-Aug-16 15:30N 54°29' E 013°35'0 0.0
2014-Aug-16 14:33N 54°29' E 013°35'0 0.0
2014-Aug-16 13:33N 54°29' E 013°35'0 0.1
2014-Aug-16 12:33N 54°29' E 013°35'2 2.3
2014-Aug-16 11:34N 54°28' E 013°39'4 3.8
2014-Aug-16 10:33N 54°27' E 013°45'1 1.5
2014-Aug-16 09:33N 54°29' E 013°44'9 9.0
2014-Aug-16 08:33N 54°37' E 013°51'1010.2
2014-Aug-16 07:33N 54°47' E 013°56'3610.2
2014-Aug-16 04:04N 55°19' E 014°24'510.7
2014-Aug-16 03:33N 55°23' E 014°30'1110.6
2014-Aug-16 02:33N 55°30' E 014°44'1110.8
2014-Aug-16 01:31N 55°35' E 015°01'1111.1
2014-Aug-16 00:30N 55°41' E 015°19'1311.0
2014-Aug-15 23:21N 55°48' E 015°38'911.0
2014-Aug-15 22:33N 55°52' E 015°52'1010.5
2014-Aug-15 21:33N 55°57' E 016°08'1010.3
2014-Aug-15 20:33N 56°02' E 016°24'67 9.6
2014-Aug-15 13:33N 57°01' E 017°21'10 9.6
2014-Aug-15 12:33N 57°10' E 017°27'10 9.9
2014-Aug-15 11:33N 57°19' E 017°34'1010.1
2014-Aug-15 10:33N 57°29' E 017°41'1210.4
2014-Aug-15 09:27N 57°40' E 017°42'  

Dump ship's entire track history